createdAt,value
2019-03-22T00:01:28.344Z,14.03
2019-03-22T00:03:59.682Z,13.78
2019-03-22T00:06:30.912Z,9.85
2019-03-22T00:09:02.397Z,10.65
2019-03-22T00:11:34.005Z,11.12
2019-03-22T00:14:05.532Z,11.78
2019-03-22T00:16:36.751Z,12.28
2019-03-22T00:19:08.090Z,11.53
2019-03-22T00:21:39.401Z,8.60
2019-03-22T00:24:10.756Z,12.68
2019-03-22T00:26:41.996Z,9.53
2019-03-22T00:29:13.409Z,11.53
2019-03-22T00:31:44.702Z,9.80
2019-03-22T00:34:15.993Z,9.40
2019-03-22T00:36:47.355Z,9.67
2019-03-22T00:39:18.618Z,6.90
2019-03-22T00:41:49.927Z,10.00
2019-03-22T00:44:21.169Z,10.90
2019-03-22T00:46:52.435Z,8.93
2019-03-22T00:49:23.706Z,9.33
2019-03-22T00:51:54.998Z,10.93
2019-03-22T00:54:26.277Z,8.35
2019-03-22T00:56:57.506Z,12.58
2019-03-22T00:59:29.681Z,8.73
2019-03-22T01:02:00.890Z,11.10
2019-03-22T01:04:32.341Z,11.03
2019-03-22T01:07:03.562Z,7.77
2019-03-22T01:09:34.825Z,8.80
2019-03-22T01:12:06.228Z,8.93
2019-03-22T01:14:37.546Z,10.33
2019-03-22T01:17:08.961Z,7.60
2019-03-22T01:19:40.183Z,7.53
2019-03-22T01:22:11.597Z,6.67
2019-03-22T01:24:42.905Z,7.62
2019-03-22T01:27:14.202Z,11.10
2019-03-22T01:29:45.602Z,7.95
2019-03-22T01:32:16.980Z,7.97
2019-03-22T01:34:48.278Z,7.27
2019-03-22T01:37:19.745Z,10.93
2019-03-22T01:39:50.962Z,10.60
2019-03-22T01:42:22.200Z,10.70
2019-03-22T01:44:53.547Z,10.50
2019-03-22T01:47:24.851Z,11.03
2019-03-22T01:49:56.221Z,10.07
2019-03-22T01:52:27.572Z,10.90
2019-03-22T01:54:58.851Z,10.57
2019-03-22T01:57:30.227Z,10.03
2019-03-22T02:00:01.616Z,11.40
2019-03-22T02:02:33.081Z,9.73
2019-03-22T02:05:06.714Z,8.90
2019-03-22T02:07:37.946Z,11.53
2019-03-22T02:10:12.391Z,10.13
2019-03-22T02:12:43.779Z,12.27
2019-03-22T02:15:17.986Z,14.20
2019-03-22T02:17:49.283Z,10.80
2019-03-22T02:20:20.717Z,10.63
2019-03-22T02:22:51.954Z,13.60
2019-03-22T02:25:23.342Z,13.38
2019-03-22T02:28:03.749Z,13.17
2019-03-22T02:30:27.719Z,9.63
2019-03-22T02:32:59.036Z,10.70
2019-03-22T02:35:30.539Z,9.87
2019-03-22T02:38:01.779Z,10.90
2019-03-22T02:40:33.008Z,10.63
2019-03-22T02:43:04.369Z,8.37
2019-03-22T02:45:36.562Z,7.03
2019-03-22T02:48:07.850Z,8.53
2019-03-22T02:50:39.191Z,9.47
2019-03-22T02:53:10.494Z,10.55
2019-03-22T02:55:41.851Z,10.33
2019-03-22T02:58:20.537Z,7.70
2019-03-22T03:00:46.198Z,8.07
2019-03-22T03:03:17.567Z,10.03
2019-03-22T03:05:48.895Z,8.67
2019-03-22T03:08:20.237Z,10.80
2019-03-22T03:10:51.456Z,8.27
2019-03-22T03:13:22.667Z,7.30
2019-03-22T03:15:53.993Z,9.03
2019-03-22T03:18:25.216Z,8.70
2019-03-22T03:20:56.566Z,8.60
2019-03-22T03:23:27.783Z,9.90
2019-03-22T03:25:59.173Z,11.33
2019-03-22T03:28:36.523Z,7.53
2019-03-22T03:31:03.498Z,8.50
2019-03-22T03:33:34.805Z,7.67
2019-03-22T03:36:06.472Z,12.53
2019-03-22T03:38:37.838Z,9.67
2019-03-22T03:41:09.305Z,8.80
2019-03-22T03:43:40.660Z,9.27
2019-03-22T03:46:12.026Z,11.43
2019-03-22T03:48:43.248Z,10.30
2019-03-22T03:51:14.512Z,7.17
2019-03-22T03:53:45.806Z,10.83
2019-03-22T03:56:18.090Z,6.00
2019-03-22T03:58:52.716Z,10.27
2019-03-22T04:01:23.099Z,7.57
2019-03-22T04:03:54.505Z,7.40
2019-03-22T04:06:25.753Z,6.67
2019-03-22T04:08:57.095Z,6.70
2019-03-22T04:11:28.374Z,8.47
2019-03-22T04:13:59.592Z,8.37
2019-03-22T04:16:30.917Z,7.50
2019-03-22T04:19:03.213Z,9.70
2019-03-22T04:21:34.467Z,9.30
2019-03-22T04:24:05.752Z,7.73
2019-03-22T04:26:37.166Z,7.63
2019-03-22T04:29:08.682Z,7.63
2019-03-22T04:31:40.148Z,7.40
2019-03-22T04:34:12.218Z,7.13
2019-03-22T04:36:43.492Z,7.43
2019-03-22T04:39:14.704Z,7.87
2019-03-22T04:41:46.107Z,6.40
2019-03-22T04:44:19.459Z,7.87
2019-03-22T04:46:51.251Z,9.23
2019-03-22T04:49:24.314Z,5.47
2019-03-22T04:51:56.681Z,6.57
2019-03-22T04:54:29.546Z,9.30
2019-03-22T04:57:01.967Z,9.10
2019-03-22T04:59:34.739Z,7.23
2019-03-22T05:02:07.938Z,8.27
2019-03-22T05:04:40.595Z,9.23
2019-03-22T05:07:12.508Z,11.57
2019-03-22T05:09:46.409Z,7.53
2019-03-22T05:12:19.962Z,6.37
2019-03-22T05:14:51.654Z,6.67
2019-03-22T05:17:23.879Z,8.50
2019-03-22T05:19:58.227Z,6.53
2019-03-22T05:22:42.212Z,7.03
2019-03-22T05:25:13.744Z,8.73
2019-03-22T05:27:46.162Z,7.60
2019-03-22T05:30:51.001Z,7.97
2019-03-22T05:33:22.292Z,9.60
2019-03-22T05:35:53.689Z,9.50
2019-03-22T05:38:25.041Z,9.40
2019-03-22T05:40:56.417Z,10.03
2019-03-22T05:43:27.773Z,9.33
2019-03-22T05:45:59.003Z,9.70
2019-03-22T05:48:30.354Z,10.67
2019-03-22T05:51:01.672Z,12.37
2019-03-22T05:53:33.028Z,13.23
2019-03-22T05:56:04.423Z,9.63
2019-03-22T05:58:35.671Z,10.87
2019-03-22T06:01:07.074Z,12.07
2019-03-22T06:03:40.010Z,9.37
2019-03-22T06:06:11.263Z,9.93
2019-03-22T06:08:42.528Z,10.47
2019-03-22T06:11:13.756Z,10.70
2019-03-22T06:13:45.023Z,9.23
2019-03-22T06:16:16.245Z,10.90
2019-03-22T06:18:50.367Z,10.33
2019-03-22T06:21:21.322Z,10.23
2019-03-22T06:23:52.763Z,11.80
2019-03-22T06:26:23.986Z,10.33
2019-03-22T06:28:55.258Z,10.47
2019-03-22T06:31:26.484Z,9.80
2019-03-22T06:33:57.856Z,13.43
2019-03-22T06:36:29.086Z,11.47
2019-03-22T06:39:00.475Z,10.17
2019-03-22T06:41:31.773Z,11.33
2019-03-22T06:44:03.175Z,9.90
2019-03-22T06:46:34.394Z,12.63
2019-03-22T06:49:06.721Z,11.37
2019-03-22T06:51:37.940Z,8.17
2019-03-22T06:54:09.288Z,13.93
2019-03-22T06:56:40.523Z,12.67
2019-03-22T06:59:11.944Z,10.80
2019-03-22T07:01:43.176Z,14.17
2019-03-22T07:04:16.212Z,23.93
2019-03-22T07:06:47.547Z,12.03
2019-03-22T07:09:18.885Z,13.17
2019-03-22T07:11:50.197Z,11.50
2019-03-22T07:14:21.419Z,10.77
2019-03-22T07:16:52.645Z,16.83
2019-03-22T07:19:24.927Z,17.50
2019-03-22T07:21:56.159Z,42.97
2019-03-22T07:24:27.388Z,51.77
2019-03-22T07:26:58.736Z,25.53
2019-03-22T07:29:30.145Z,15.57
2019-03-22T07:32:01.381Z,12.97
2019-03-22T07:34:32.711Z,15.33
2019-03-22T07:37:04.084Z,14.50
2019-03-22T07:39:35.449Z,17.73
2019-03-22T07:42:06.746Z,14.28
2019-03-22T07:44:38.091Z,13.77
2019-03-22T07:47:09.392Z,14.80
2019-03-22T07:49:40.620Z,17.37
2019-03-22T07:52:11.922Z,17.73
2019-03-22T07:54:43.178Z,15.87
2019-03-22T07:57:14.435Z,15.07
2019-03-22T07:59:45.742Z,15.60
2019-03-22T08:02:17.045Z,15.27
2019-03-22T08:04:48.435Z,13.87
2019-03-22T08:07:19.659Z,12.77
2019-03-22T08:09:51.463Z,15.13
2019-03-22T08:12:23.315Z,14.58
2019-03-22T08:14:56.770Z,14.67
2019-03-22T08:17:28.232Z,14.67
2019-03-22T08:19:59.566Z,15.55
2019-03-22T08:22:30.864Z,15.70
2019-03-22T08:25:02.188Z,15.55
2019-03-22T08:27:33.408Z,16.52
2019-03-22T08:30:06.617Z,19.87
2019-03-22T08:32:37.844Z,14.38
2019-03-22T08:35:09.159Z,18.50
2019-03-22T08:37:52.083Z,16.37
2019-03-22T08:40:13.660Z,16.10
2019-03-22T08:42:44.983Z,14.50
2019-03-22T08:45:17.186Z,14.58
2019-03-22T08:47:48.553Z,13.55
2019-03-22T08:50:19.888Z,12.15
2019-03-22T08:52:51.193Z,16.10
2019-03-22T08:55:22.468Z,14.78
2019-03-22T08:57:53.740Z,13.90
2019-03-22T09:00:38.265Z,14.38
2019-03-22T09:02:58.195Z,17.57
2019-03-22T09:05:30.289Z,15.35
2019-03-22T09:08:01.592Z,17.50
2019-03-22T09:10:33.095Z,12.37
2019-03-22T09:13:04.728Z,13.62
2019-03-22T09:15:41.031Z,13.68
2019-03-22T09:18:10.783Z,13.93
2019-03-22T09:20:42.642Z,16.40
2019-03-22T09:23:13.867Z,14.58
2019-03-22T09:25:46.890Z,12.30
2019-03-22T09:28:18.259Z,14.03
2019-03-22T09:30:49.739Z,12.95
2019-03-22T09:33:21.018Z,13.88
2019-03-22T09:35:52.353Z,16.02
2019-03-22T09:38:23.686Z,15.15
2019-03-22T09:40:55.037Z,14.68
2019-03-22T09:43:26.304Z,13.30
2019-03-22T09:45:57.783Z,11.33
2019-03-22T09:48:29.031Z,13.50
2019-03-22T09:51:06.131Z,17.10
2019-03-22T09:53:37.450Z,20.02
2019-03-22T09:56:09.243Z,19.02
2019-03-22T09:58:40.575Z,13.70
2019-03-22T10:01:23.149Z,12.88
2019-03-22T10:03:48.038Z,15.00
2019-03-22T10:06:19.398Z,16.37
2019-03-22T10:08:51.871Z,15.88
2019-03-22T10:11:23.269Z,20.40
2019-03-22T10:13:54.559Z,19.50
2019-03-22T10:16:25.881Z,12.23
2019-03-22T10:18:57.254Z,18.35
2019-03-22T10:21:28.666Z,15.58
2019-03-22T10:23:59.952Z,18.60
2019-03-22T10:26:31.193Z,14.73
2019-03-22T10:29:03.288Z,14.28
2019-03-22T10:31:37.440Z,15.45
2019-03-22T10:34:20.070Z,14.13
2019-03-22T10:36:51.359Z,14.98
2019-03-22T10:39:22.735Z,17.32
2019-03-22T10:41:53.967Z,16.17
2019-03-22T10:44:25.261Z,17.42
2019-03-22T10:46:56.755Z,14.78
2019-03-22T10:49:27.967Z,16.73
2019-03-22T10:51:58.628Z,13.20
2019-03-22T10:54:30.111Z,17.48
2019-03-22T10:57:02.246Z,18.10
2019-03-22T10:59:33.484Z,16.07
2019-03-22T11:02:07.656Z,14.50
2019-03-22T11:04:37.955Z,14.58
2019-03-22T11:07:09.351Z,14.90
2019-03-22T11:09:40.599Z,15.23
2019-03-22T11:12:12.678Z,15.93
2019-03-22T11:14:45.678Z,16.07
2019-03-22T11:17:17.347Z,15.78
2019-03-22T11:19:48.661Z,16.90
2019-03-22T11:22:21.429Z,12.45
2019-03-22T11:24:54.554Z,12.82
2019-03-22T11:27:25.802Z,14.38
2019-03-22T11:29:57.163Z,15.50
2019-03-22T11:32:28.618Z,12.75
2019-03-22T11:34:59.911Z,15.98
2019-03-22T11:37:31.209Z,13.58
2019-03-22T11:40:02.448Z,12.13
2019-03-22T11:42:33.969Z,12.20
2019-03-22T11:45:12.556Z,11.70
2019-03-22T11:47:43.917Z,8.95
2019-03-22T11:50:15.697Z,11.35
2019-03-22T11:52:47.124Z,18.12
2019-03-22T11:55:19.081Z,9.08
2019-03-22T11:57:50.428Z,11.40
2019-03-22T12:00:25.034Z,10.72
2019-03-22T12:02:56.544Z,9.33
2019-03-22T12:05:40.055Z,11.55
2019-03-22T12:08:06.976Z,11.85
2019-03-22T12:10:40.040Z,9.80
2019-03-22T12:13:11.381Z,11.28
2019-03-22T12:15:42.639Z,11.00
2019-03-22T12:18:14.705Z,13.20
2019-03-22T12:20:45.916Z,10.03
2019-03-22T12:23:17.229Z,10.15
2019-03-22T12:25:48.561Z,12.53
2019-03-22T12:28:19.796Z,11.22
2019-03-22T12:30:51.249Z,9.85
2019-03-22T12:33:23.183Z,11.18
2019-03-22T12:35:54.500Z,6.95
2019-03-22T12:38:25.777Z,8.40
2019-03-22T12:40:57.088Z,8.93
2019-03-22T12:43:30.473Z,7.70
2019-03-22T12:46:01.923Z,7.72
2019-03-22T12:48:33.181Z,8.18
2019-03-22T12:51:04.502Z,11.05
2019-03-22T12:53:35.771Z,7.62
2019-03-22T12:56:07.250Z,8.85
2019-03-22T12:58:38.478Z,6.87
2019-03-22T13:01:10.355Z,8.43
2019-03-22T13:03:42.649Z,8.90
2019-03-22T13:06:14.069Z,9.43
2019-03-22T13:08:45.452Z,7.95
2019-03-22T13:11:16.764Z,6.87
2019-03-22T13:13:48.003Z,7.87
2019-03-22T13:16:19.310Z,8.18
2019-03-22T13:18:50.608Z,16.02
2019-03-22T13:21:21.877Z,7.22
2019-03-22T13:23:53.350Z,7.33
2019-03-22T13:26:24.837Z,6.85
2019-03-22T13:28:56.174Z,8.90
2019-03-22T13:31:27.499Z,8.75
2019-03-22T13:33:58.789Z,8.05
2019-03-22T13:36:30.041Z,6.03
2019-03-22T13:39:01.416Z,8.95
2019-03-22T13:41:36.066Z,8.45
2019-03-22T13:44:07.426Z,7.60
2019-03-22T13:46:40.506Z,9.15
2019-03-22T13:49:11.901Z,7.83
2019-03-22T13:51:43.211Z,6.12
2019-03-22T13:54:14.547Z,6.80
2019-03-22T13:56:45.991Z,6.92
2019-03-22T13:59:17.231Z,6.75
2019-03-22T14:01:48.733Z,6.85
2019-03-22T14:04:19.978Z,8.50
2019-03-22T14:06:51.375Z,9.73
2019-03-22T14:09:24.866Z,8.35
2019-03-22T14:11:56.427Z,9.75
2019-03-22T14:14:27.682Z,8.30
2019-03-22T14:17:00.853Z,7.37
2019-03-22T14:19:32.427Z,7.55
2019-03-22T14:22:03.714Z,6.92
2019-03-22T14:24:35.088Z,6.87
2019-03-22T14:27:06.356Z,7.37
2019-03-22T14:29:37.879Z,6.65
2019-03-22T14:32:09.118Z,9.18
2019-03-22T14:34:42.080Z,8.25
2019-03-22T14:37:13.917Z,8.53
2019-03-22T14:39:45.309Z,6.85
2019-03-22T14:42:40.213Z,8.95
2019-03-22T14:45:12.318Z,10.18
2019-03-22T14:47:46.618Z,8.60
2019-03-22T14:50:19.106Z,7.53
2019-03-22T14:52:50.910Z,6.58
2019-03-22T14:55:22.243Z,10.13
2019-03-22T14:57:53.723Z,9.05
2019-03-22T15:00:25.017Z,5.83
2019-03-22T15:02:56.688Z,5.50
2019-03-22T15:05:28.046Z,8.08
2019-03-22T15:07:59.346Z,5.20
2019-03-22T15:10:30.729Z,5.87
2019-03-22T15:13:02.057Z,9.95
2019-03-22T15:15:56.653Z,8.18
2019-03-22T15:18:30.472Z,6.55
2019-03-22T15:21:19.437Z,5.55
2019-03-22T15:24:03.194Z,6.40
2019-03-22T15:26:30.191Z,8.00
2019-03-22T15:29:11.750Z,5.53
2019-03-22T15:31:53.917Z,6.37
2019-03-22T15:34:43.317Z,6.12
2019-03-22T15:37:19.139Z,8.18
2019-03-22T15:40:04.029Z,7.65
2019-03-22T15:42:35.811Z,6.65
2019-03-22T15:45:10.082Z,6.62
2019-03-22T15:47:41.439Z,7.87
2019-03-22T15:50:15.642Z,7.05
2019-03-22T15:52:47.085Z,7.35
2019-03-22T15:55:18.492Z,9.85
2019-03-22T15:57:50.112Z,7.28
2019-03-22T16:00:21.414Z,9.13
2019-03-22T16:02:52.798Z,8.10
2019-03-22T16:05:24.105Z,8.48
2019-03-22T16:07:55.415Z,9.43
2019-03-22T16:10:26.812Z,7.85
2019-03-22T16:12:58.186Z,7.67
2019-03-22T16:15:29.474Z,10.28
2019-03-22T16:18:00.789Z,8.60
2019-03-22T16:20:32.179Z,11.90
2019-03-22T16:23:03.583Z,9.10
2019-03-22T16:25:35.958Z,9.28
2019-03-22T16:28:07.398Z,14.38
2019-03-22T16:30:38.706Z,11.68
2019-03-22T16:33:09.953Z,14.58
2019-03-22T16:35:41.250Z,12.05
2019-03-22T16:38:12.513Z,12.15
2019-03-22T16:40:43.905Z,9.08
2019-03-22T16:43:15.312Z,14.23
2019-03-22T16:45:46.621Z,10.28
2019-03-22T16:48:17.973Z,12.53
2019-03-22T16:50:49.386Z,12.23
2019-03-22T16:53:20.745Z,13.68
2019-03-22T16:56:01.367Z,10.90
2019-03-22T16:58:32.949Z,10.25
2019-03-22T17:01:06.265Z,12.55
2019-03-22T17:03:37.644Z,11.12
2019-03-22T17:06:09.014Z,14.53
2019-03-22T17:08:40.308Z,13.58
2019-03-22T17:11:11.628Z,10.65
2019-03-22T17:13:43.004Z,12.40
2019-03-22T17:16:14.316Z,12.25
2019-03-22T17:18:45.734Z,12.37
2019-03-22T17:21:17.168Z,15.13
2019-03-22T17:23:48.591Z,15.78
2019-03-22T17:26:19.870Z,14.87
2019-03-22T17:28:51.228Z,12.05
2019-03-22T17:31:22.484Z,13.93
2019-03-22T17:33:53.932Z,13.30
2019-03-22T17:36:25.168Z,16.90
2019-03-22T17:38:56.617Z,17.10
2019-03-22T17:41:27.930Z,15.63
2019-03-22T17:43:59.376Z,27.42
2019-03-22T17:46:30.660Z,17.82
2019-03-22T17:49:07.022Z,15.63
2019-03-22T17:51:38.614Z,16.82
2019-03-22T17:54:09.947Z,14.95
2019-03-22T17:56:41.332Z,23.90
2019-03-22T17:59:12.660Z,19.00
2019-03-22T18:01:44.211Z,25.43
2019-03-22T18:04:23.855Z,27.25
2019-03-22T18:06:49.406Z,25.40
2019-03-22T18:09:20.720Z,28.87
2019-03-22T18:12:10.551Z,30.17
2019-03-22T18:14:42.689Z,20.17
2019-03-22T18:17:14.162Z,22.58
2019-03-22T18:19:49.121Z,14.80
2019-03-22T18:22:20.449Z,16.37
2019-03-22T18:24:51.800Z,13.13
2019-03-22T18:27:23.013Z,12.65
2019-03-22T18:29:54.364Z,14.75
2019-03-22T18:32:25.599Z,14.73
2019-03-22T18:34:56.957Z,9.85
2019-03-22T18:37:28.189Z,11.25
2019-03-22T18:39:59.525Z,9.63
2019-03-22T18:42:30.896Z,12.10
2019-03-22T18:45:02.248Z,11.35
2019-03-22T18:47:33.566Z,10.05
2019-03-22T18:50:10.288Z,10.85
2019-03-22T18:52:41.769Z,13.80
2019-03-22T18:55:13.517Z,13.22
2019-03-22T18:57:45.588Z,13.45
2019-03-22T19:00:18.317Z,7.78
2019-03-22T19:02:49.688Z,8.48
2019-03-22T19:05:21.801Z,8.80
2019-03-22T19:07:53.437Z,9.48
2019-03-22T19:10:25.787Z,12.37
2019-03-22T19:12:57.097Z,8.68
2019-03-22T19:15:46.411Z,15.38
2019-03-22T19:18:17.761Z,12.60
2019-03-22T19:20:49.222Z,13.48
2019-03-22T19:23:20.472Z,15.43
2019-03-22T19:25:51.875Z,12.37
2019-03-22T19:28:23.694Z,15.03
2019-03-22T19:30:56.324Z,12.50
2019-03-22T19:33:27.831Z,9.88
2019-03-22T19:35:59.443Z,12.00
2019-03-22T19:38:31.239Z,14.47
2019-03-22T19:41:03.141Z,12.07
2019-03-22T19:43:34.579Z,13.43
2019-03-22T19:46:06.709Z,10.63
2019-03-22T19:48:38.007Z,14.98
2019-03-22T19:51:09.697Z,11.90
2019-03-22T19:53:42.094Z,8.40
2019-03-22T19:56:13.395Z,11.50
2019-03-22T19:58:45.778Z,14.25
2019-03-22T20:01:17.309Z,11.08
2019-03-22T20:03:48.763Z,11.30
2019-03-22T20:06:20.149Z,13.05
2019-03-22T20:08:51.568Z,10.10
2019-03-22T20:11:24.029Z,10.82
2019-03-22T20:13:55.378Z,10.15
2019-03-22T20:16:26.869Z,7.85
2019-03-22T20:18:59.032Z,9.03
2019-03-22T20:21:30.386Z,9.10
2019-03-22T20:24:01.693Z,10.23
2019-03-22T20:26:33.228Z,10.25
2019-03-22T20:29:04.610Z,8.30
2019-03-22T20:31:37.109Z,11.22
2019-03-22T20:34:08.396Z,11.30
2019-03-22T20:36:39.736Z,10.65
2019-03-22T20:39:11.177Z,12.82
2019-03-22T20:41:42.505Z,11.12
2019-03-22T20:44:13.920Z,12.40
2019-03-22T20:46:45.202Z,11.80
2019-03-22T20:49:16.607Z,14.07
2019-03-22T20:51:48.063Z,13.20
2019-03-22T20:54:19.838Z,11.97
2019-03-22T20:56:51.171Z,17.37
2019-03-22T20:59:28.451Z,15.70
2019-03-22T21:01:59.895Z,14.15
2019-03-22T21:04:31.376Z,14.58
2019-03-22T21:07:02.815Z,15.10
2019-03-22T21:09:34.043Z,14.55
2019-03-22T21:12:05.543Z,13.48
2019-03-22T21:14:36.854Z,16.23
2019-03-22T21:17:08.879Z,13.70
2019-03-22T21:19:40.253Z,14.78
2019-03-22T21:22:11.608Z,11.30
2019-03-22T21:24:43.252Z,12.90
2019-03-22T21:27:22.440Z,11.90
2019-03-22T21:29:53.662Z,10.68
2019-03-22T21:32:25.139Z,11.15
2019-03-22T21:34:56.486Z,9.10
2019-03-22T21:37:28.332Z,10.48
2019-03-22T21:40:00.313Z,10.25
2019-03-22T21:42:32.464Z,9.78
2019-03-22T21:45:05.934Z,11.35
2019-03-22T21:47:37.474Z,11.90
2019-03-22T21:50:14.421Z,9.88
2019-03-22T21:52:45.645Z,10.85
2019-03-22T21:55:18.238Z,10.65
2019-03-22T21:57:49.519Z,11.97
2019-03-22T22:00:20.877Z,10.55
2019-03-22T22:02:52.970Z,9.00
2019-03-22T22:05:24.394Z,10.85
2019-03-22T22:07:55.645Z,10.23
2019-03-22T22:10:26.924Z,10.18
2019-03-22T22:12:58.461Z,8.75
2019-03-22T22:15:29.817Z,8.43
2019-03-22T22:18:01.090Z,9.20
2019-03-22T22:20:32.335Z,9.10
2019-03-22T22:23:04.510Z,10.93
2019-03-22T22:25:36.808Z,7.90
2019-03-22T22:28:08.109Z,9.45
2019-03-22T22:30:39.382Z,9.88
2019-03-22T22:33:10.597Z,11.00
2019-03-22T22:35:41.886Z,9.20
2019-03-22T22:38:13.097Z,11.25
2019-03-22T22:40:44.461Z,11.55
2019-03-22T22:43:15.694Z,10.48
2019-03-22T22:45:47.128Z,11.70
2019-03-22T22:48:18.394Z,12.00
2019-03-22T22:50:49.677Z,8.75
2019-03-22T22:53:20.906Z,10.35
2019-03-22T22:55:52.188Z,12.47
2019-03-22T22:58:23.438Z,10.40
2019-03-22T23:00:55.049Z,10.82
2019-03-22T23:03:27.947Z,10.78
2019-03-22T23:06:09.026Z,8.60
2019-03-22T23:08:32.310Z,10.10
2019-03-22T23:11:03.750Z,10.60
2019-03-22T23:13:35.111Z,11.00
2019-03-22T23:16:09.286Z,8.03
2019-03-22T23:18:40.728Z,8.83
2019-03-22T23:21:13.207Z,9.95
2019-03-22T23:23:46.150Z,9.60
2019-03-22T23:26:17.425Z,10.60
2019-03-22T23:28:51.494Z,8.18
2019-03-22T23:31:22.932Z,9.53
2019-03-22T23:33:54.295Z,9.13
2019-03-22T23:36:25.609Z,8.70
2019-03-22T23:38:57.037Z,9.45
2019-03-22T23:41:28.419Z,9.20
2019-03-22T23:43:59.884Z,12.53
2019-03-22T23:46:31.244Z,9.17
2019-03-22T23:49:03.505Z,10.50
2019-03-22T23:51:34.798Z,9.20
2019-03-22T23:54:06.079Z,11.37
2019-03-22T23:56:37.312Z,10.45
2019-03-22T23:59:08.594Z,12.80
